sensor_id;sensor_type;location;lat;lon;timestamp;temperature;humidity
31575;DHT22;18182;1.328;103.810;2022-12-26T00:01:50;27.70;99.90
31575;DHT22;18182;1.328;103.810;2022-12-26T00:04:16;27.70;99.90
31575;DHT22;18182;1.328;103.810;2022-12-26T00:06:42;27.70;99.90
31575;DHT22;18182;1.328;103.810;2022-12-26T00:09:09;27.80;99.90
31575;DHT22;18182;1.328;103.810;2022-12-26T00:11:35;27.70;99.90
31575;DHT22;18182;1.328;103.810;2022-12-26T00:14:03;27.70;99.90
31575;DHT22;18182;1.328;103.810;2022-12-26T00:16:29;27.70;99.90
31575;DHT22;18182;1.328;103.810;2022-12-26T00:18:56;27.70;99.90
31575;DHT22;18182;1.328;103.810;2022-12-26T00:21:22;27.80;99.90
31575;DHT22;18182;1.328;103.810;2022-12-26T00:23:51;27.80;99.90
31575;DHT22;18182;1.328;103.810;2022-12-26T00:26:18;27.90;99.90
31575;DHT22;18182;1.328;103.810;2022-12-26T00:28:45;27.90;99.90
31575;DHT22;18182;1.328;103.810;2022-12-26T00:31:13;27.90;99.90
31575;DHT22;18182;1.328;103.810;2022-12-26T00:33:39;28.00;99.90
31575;DHT22;18182;1.328;103.810;2022-12-26T00:36:06;28.00;99.90
31575;DHT22;18182;1.328;103.810;2022-12-26T00:38:36;28.10;99.90
31575;DHT22;18182;1.328;103.810;2022-12-26T00:41:03;28.20;99.90
31575;DHT22;18182;1.328;103.810;2022-12-26T00:43:29;28.20;99.90
31575;DHT22;18182;1.328;103.810;2022-12-26T00:45:55;28.30;99.90
31575;DHT22;18182;1.328;103.810;2022-12-26T00:48:22;28.40;99.90
31575;DHT22;18182;1.328;103.810;2022-12-26T00:50:48;28.50;99.90
31575;DHT22;18182;1.328;103.810;2022-12-26T00:53:14;28.70;99.90
31575;DHT22;18182;1.328;103.810;2022-12-26T00:55:40;28.80;99.90
31575;DHT22;18182;1.328;103.810;2022-12-26T00:58:06;28.90;99.90
31575;DHT22;18182;1.328;103.810;2022-12-26T01:00:33;29.00;99.90
31575;DHT22;18182;1.328;103.810;2022-12-26T01:02:59;29.20;99.90
31575;DHT22;18182;1.328;103.810;2022-12-26T01:05:25;29.30;99.90
31575;DHT22;18182;1.328;103.810;2022-12-26T01:07:51;29.50;99.90
31575;DHT22;18182;1.328;103.810;2022-12-26T01:10:17;29.50;99.90
31575;DHT22;18182;1.328;103.810;2022-12-26T01:12:44;29.60;99.90
31575;DHT22;18182;1.328;103.810;2022-12-26T01:15:10;29.70;99.90
31575;DHT22;18182;1.328;103.810;2022-12-26T01:17:36;29.80;99.90
31575;DHT22;18182;1.328;103.810;2022-12-26T01:20:02;29.90;99.90
31575;DHT22;18182;1.328;103.810;2022-12-26T01:22:29;30.00;99.90
31575;DHT22;18182;1.328;103.810;2022-12-26T01:24:55;30.00;99.90
31575;DHT22;18182;1.328;103.810;2022-12-26T01:27:22;30.10;99.90
31575;DHT22;18182;1.328;103.810;2022-12-26T01:29:49;30.10;99.90
31575;DHT22;18182;1.328;103.810;2022-12-26T01:32:15;30.20;99.90
31575;DHT22;18182;1.328;103.810;2022-12-26T01:34:41;30.30;99.90
31575;DHT22;18182;1.328;103.810;2022-12-26T01:37:08;30.30;99.90
31575;DHT22;18182;1.328;103.810;2022-12-26T01:39:36;30.30;99.90
31575;DHT22;18182;1.328;103.810;2022-12-26T01:42:07;30.40;99.90
31575;DHT22;18182;1.328;103.810;2022-12-26T01:47:18;30.40;99.90
31575;DHT22;18182;1.328;103.810;2022-12-26T01:49:47;30.40;99.90
31575;DHT22;18182;1.328;103.810;2022-12-26T01:52:15;30.40;99.90
31575;DHT22;18182;1.328;103.810;2022-12-26T01:54:44;30.50;99.90
31575;DHT22;18182;1.328;103.810;2022-12-26T01:57:16;30.60;99.90
31575;DHT22;18182;1.328;103.810;2022-12-26T01:59:45;30.80;99.90
31575;DHT22;18182;1.328;103.810;2022-12-26T02:02:12;30.80;99.90
31575;DHT22;18182;1.328;103.810;2022-12-26T02:04:40;30.80;99.90
31575;DHT22;18182;1.328;103.810;2022-12-26T02:07:27;30.80;99.90
31575;DHT22;18182;1.328;103.810;2022-12-26T02:09:53;30.80;99.90
31575;DHT22;18182;1.328;103.810;2022-12-26T02:12:24;30.80;99.90
31575;DHT22;18182;1.328;103.810;2022-12-26T02:14:50;30.80;99.90
31575;DHT22;18182;1.328;103.810;2022-12-26T02:17:17;30.70;99.90
31575;DHT22;18182;1.328;103.810;2022-12-26T02:19:49;30.60;99.90
31575;DHT22;18182;1.328;103.810;2022-12-26T02:28:06;30.60;99.90
31575;DHT22;18182;1.328;103.810;2022-12-26T02:33:04;30.70;99.90
31575;DHT22;18182;1.328;103.810;2022-12-26T02:35:46;30.70;99.90
31575;DHT22;18182;1.328;103.810;2022-12-26T02:46:04;30.90;99.90
31575;DHT22;18182;1.328;103.810;2022-12-26T02:54:30;31.10;99.90
31575;DHT22;18182;1.328;103.810;2022-12-26T02:57:17;31.10;99.90
31575;DHT22;18182;1.328;103.810;2022-12-26T03:00:07;31.20;99.90
31575;DHT22;18182;1.328;103.810;2022-12-26T03:02:54;31.30;99.90
31575;DHT22;18182;1.328;103.810;2022-12-26T03:05:40;31.30;99.90
31575;DHT22;18182;1.328;103.810;2022-12-26T03:08:40;31.30;99.90
31575;DHT22;18182;1.328;103.810;2022-12-26T03:11:28;31.50;99.90
31575;DHT22;18182;1.328;103.810;2022-12-26T03:14:18;31.60;99.90
31575;DHT22;18182;1.328;103.810;2022-12-26T03:16:46;31.60;99.90
31575;DHT22;18182;1.328;103.810;2022-12-26T03:19:32;31.70;99.90
31575;DHT22;18182;1.328;103.810;2022-12-26T03:21:59;31.70;99.90
31575;DHT22;18182;1.328;103.810;2022-12-26T03:24:46;31.80;99.90
31575;DHT22;18182;1.328;103.810;2022-12-26T03:27:31;31.80;99.90
31575;DHT22;18182;1.328;103.810;2022-12-26T03:29:58;31.90;99.90
31575;DHT22;18182;1.328;103.810;2022-12-26T03:32:44;32.00;99.90
31575;DHT22;18182;1.328;103.810;2022-12-26T03:35:11;32.00;99.90
31575;DHT22;18182;1.328;103.810;2022-12-26T03:37:40;31.90;99.90
31575;DHT22;18182;1.328;103.810;2022-12-26T03:43:04;31.90;99.90
31575;DHT22;18182;1.328;103.810;2022-12-26T03:51:21;31.50;99.90
31575;DHT22;18182;1.328;103.810;2022-12-26T03:54:20;31.50;99.90
31575;DHT22;18182;1.328;103.810;2022-12-26T03:57:08;31.30;99.90
31575;DHT22;18182;1.328;103.810;2022-12-26T04:00:04;31.40;99.90
31575;DHT22;18182;1.328;103.810;2022-12-26T04:02:49;31.40;99.90
31575;DHT22;18182;1.328;103.810;2022-12-26T04:05:34;31.40;99.90
31575;DHT22;18182;1.328;103.810;2022-12-26T04:08:23;31.40;99.90
31575;DHT22;18182;1.328;103.810;2022-12-26T04:11:10;31.60;99.90
31575;DHT22;18182;1.328;103.810;2022-12-26T04:17:32;31.60;99.90
31575;DHT22;18182;1.328;103.810;2022-12-26T04:20:37;31.60;99.90
31575;DHT22;18182;1.328;103.810;2022-12-26T04:23:13;31.60;99.90
31575;DHT22;18182;1.328;103.810;2022-12-26T04:26:02;31.70;99.90
31575;DHT22;18182;1.328;103.810;2022-12-26T04:28:48;31.70;99.90
31575;DHT22;18182;1.328;103.810;2022-12-26T04:31:39;31.70;99.90
31575;DHT22;18182;1.328;103.810;2022-12-26T04:34:29;31.80;99.90
31575;DHT22;18182;1.328;103.810;2022-12-26T04:37:18;31.90;99.90
31575;DHT22;18182;1.328;103.810;2022-12-26T04:40:03;32.20;99.90
31575;DHT22;18182;1.328;103.810;2022-12-26T04:42:50;32.30;99.90
31575;DHT22;18182;1.328;103.810;2022-12-26T04:45:34;32.30;99.90
31575;DHT22;18182;1.328;103.810;2022-12-26T04:48:01;32.20;99.90
31575;DHT22;18182;1.328;103.810;2022-12-26T04:50:49;32.20;99.90
31575;DHT22;18182;1.328;103.810;2022-12-26T04:53:16;32.20;99.90
31575;DHT22;18182;1.328;103.810;2022-12-26T04:55:42;32.20;99.90
31575;DHT22;18182;1.328;103.810;2022-12-26T04:58:09;32.10;99.90
31575;DHT22;18182;1.328;103.810;2022-12-26T05:00:35;32.10;99.90
31575;DHT22;18182;1.328;103.810;2022-12-26T05:03:01;32.10;99.90
31575;DHT22;18182;1.328;103.810;2022-12-26T05:05:49;32.10;99.90
31575;DHT22;18182;1.328;103.810;2022-12-26T05:08:38;32.20;99.90
31575;DHT22;18182;1.328;103.810;2022-12-26T05:11:23;32.20;99.90
31575;DHT22;18182;1.328;103.810;2022-12-26T05:13:50;32.10;99.90
31575;DHT22;18182;1.328;103.810;2022-12-26T05:16:17;32.00;99.90
31575;DHT22;18182;1.328;103.810;2022-12-26T05:19:02;31.90;99.90
31575;DHT22;18182;1.328;103.810;2022-12-26T05:21:46;31.90;99.90
31575;DHT22;18182;1.328;103.810;2022-12-26T05:24:32;31.90;99.90
31575;DHT22;18182;1.328;103.810;2022-12-26T05:27:18;31.90;99.90
31575;DHT22;18182;1.328;103.810;2022-12-26T05:30:03;31.80;99.90
31575;DHT22;18182;1.328;103.810;2022-12-26T05:32:29;31.70;99.90
31575;DHT22;18182;1.328;103.810;2022-12-26T05:35:13;31.60;99.90
31575;DHT22;18182;1.328;103.810;2022-12-26T05:37:39;31.50;99.90
31575;DHT22;18182;1.328;103.810;2022-12-26T05:40:06;31.60;99.90
31575;DHT22;18182;1.328;103.810;2022-12-26T05:42:32;31.60;99.90
31575;DHT22;18182;1.328;103.810;2022-12-26T05:44:58;31.60;99.90
31575;DHT22;18182;1.328;103.810;2022-12-26T05:47:24;31.60;99.90
31575;DHT22;18182;1.328;103.810;2022-12-26T05:49:50;31.60;99.90
31575;DHT22;18182;1.328;103.810;2022-12-26T05:52:16;31.50;99.90
31575;DHT22;18182;1.328;103.810;2022-12-26T05:54:42;31.40;99.90
31575;DHT22;18182;1.328;103.810;2022-12-26T05:57:08;31.30;99.90
31575;DHT22;18182;1.328;103.810;2022-12-26T05:59:34;31.20;99.90
31575;DHT22;18182;1.328;103.810;2022-12-26T06:02:01;31.20;99.90
31575;DHT22;18182;1.328;103.810;2022-12-26T06:04:27;31.10;99.90
31575;DHT22;18182;1.328;103.810;2022-12-26T06:06:54;31.00;99.90
31575;DHT22;18182;1.328;103.810;2022-12-26T06:09:21;30.90;99.90
31575;DHT22;18182;1.328;103.810;2022-12-26T06:11:48;30.90;99.90
31575;DHT22;18182;1.328;103.810;2022-12-26T06:14:14;30.80;99.90
31575;DHT22;18182;1.328;103.810;2022-12-26T06:16:40;30.80;99.90
31575;DHT22;18182;1.328;103.810;2022-12-26T06:19:07;30.80;99.90
31575;DHT22;18182;1.328;103.810;2022-12-26T06:21:33;30.80;99.90
31575;DHT22;18182;1.328;103.810;2022-12-26T06:23:59;30.80;99.90
31575;DHT22;18182;1.328;103.810;2022-12-26T06:26:25;30.70;99.90
31575;DHT22;18182;1.328;103.810;2022-12-26T06:28:51;30.60;99.90
31575;DHT22;18182;1.328;103.810;2022-12-26T06:31:18;30.60;99.90
31575;DHT22;18182;1.328;103.810;2022-12-26T06:33:46;30.60;99.90
31575;DHT22;18182;1.328;103.810;2022-12-26T06:36:14;30.60;99.90
31575;DHT22;18182;1.328;103.810;2022-12-26T06:38:41;30.60;99.90
31575;DHT22;18182;1.328;103.810;2022-12-26T06:41:09;30.60;99.90
31575;DHT22;18182;1.328;103.810;2022-12-26T06:43:35;30.60;99.90
31575;DHT22;18182;1.328;103.810;2022-12-26T06:46:02;30.50;99.90
31575;DHT22;18182;1.328;103.810;2022-12-26T06:48:29;30.50;99.90
31575;DHT22;18182;1.328;103.810;2022-12-26T06:50:55;30.60;99.90
31575;DHT22;18182;1.328;103.810;2022-12-26T06:53:22;30.60;99.90
31575;DHT22;18182;1.328;103.810;2022-12-26T06:55:49;30.60;99.90
31575;DHT22;18182;1.328;103.810;2022-12-26T06:58:15;30.60;99.90
31575;DHT22;18182;1.328;103.810;2022-12-26T07:00:42;30.70;99.90
31575;DHT22;18182;1.328;103.810;2022-12-26T07:03:09;30.70;99.90
31575;DHT22;18182;1.328;103.810;2022-12-26T07:05:35;30.80;99.90
31575;DHT22;18182;1.328;103.810;2022-12-26T07:08:01;30.80;99.90
31575;DHT22;18182;1.328;103.810;2022-12-26T07:10:27;30.80;99.90
31575;DHT22;18182;1.328;103.810;2022-12-26T07:12:53;30.90;99.90
31575;DHT22;18182;1.328;103.810;2022-12-26T07:15:19;30.90;99.90
31575;DHT22;18182;1.328;103.810;2022-12-26T07:17:46;30.90;99.90
31575;DHT22;18182;1.328;103.810;2022-12-26T07:20:12;31.00;99.90
31575;DHT22;18182;1.328;103.810;2022-12-26T07:22:38;31.10;99.90
31575;DHT22;18182;1.328;103.810;2022-12-26T07:25:04;31.20;99.90
31575;DHT22;18182;1.328;103.810;2022-12-26T07:27:30;31.20;99.90
31575;DHT22;18182;1.328;103.810;2022-12-26T07:29:56;31.30;99.90
31575;DHT22;18182;1.328;103.810;2022-12-26T07:32:22;31.20;99.90
31575;DHT22;18182;1.328;103.810;2022-12-26T07:34:48;31.20;99.90
31575;DHT22;18182;1.328;103.810;2022-12-26T07:37:14;31.30;99.90
31575;DHT22;18182;1.328;103.810;2022-12-26T07:39:41;31.20;99.90
31575;DHT22;18182;1.328;103.810;2022-12-26T07:42:07;31.20;99.90
31575;DHT22;18182;1.328;103.810;2022-12-26T07:44:33;31.10;99.90
31575;DHT22;18182;1.328;103.810;2022-12-26T07:46:59;31.10;99.90
31575;DHT22;18182;1.328;103.810;2022-12-26T07:49:26;31.00;99.90
31575;DHT22;18182;1.328;103.810;2022-12-26T07:51:52;30.90;99.90
31575;DHT22;18182;1.328;103.810;2022-12-26T07:54:18;30.90;99.90
31575;DHT22;18182;1.328;103.810;2022-12-26T07:56:44;30.80;99.90
31575;DHT22;18182;1.328;103.810;2022-12-26T07:59:14;30.70;99.90
31575;DHT22;18182;1.328;103.810;2022-12-26T08:01:41;30.70;99.90
31575;DHT22;18182;1.328;103.810;2022-12-26T08:04:08;30.70;99.90
31575;DHT22;18182;1.328;103.810;2022-12-26T08:06:34;30.70;99.90
31575;DHT22;18182;1.328;103.810;2022-12-26T08:09:00;30.60;99.90
31575;DHT22;18182;1.328;103.810;2022-12-26T08:11:26;30.60;99.90
31575;DHT22;18182;1.328;103.810;2022-12-26T08:13:53;30.60;99.90
31575;DHT22;18182;1.328;103.810;2022-12-26T08:16:19;30.50;99.90
31575;DHT22;18182;1.328;103.810;2022-12-26T08:18:45;30.50;99.90
31575;DHT22;18182;1.328;103.810;2022-12-26T08:21:12;30.40;99.90
31575;DHT22;18182;1.328;103.810;2022-12-26T08:23:38;30.40;99.90
31575;DHT22;18182;1.328;103.810;2022-12-26T08:26:08;30.30;99.90
31575;DHT22;18182;1.328;103.810;2022-12-26T08:28:34;30.20;99.90
31575;DHT22;18182;1.328;103.810;2022-12-26T08:31:04;30.20;99.90
31575;DHT22;18182;1.328;103.810;2022-12-26T08:33:31;30.20;99.90
31575;DHT22;18182;1.328;103.810;2022-12-26T08:36:04;30.20;99.90
31575;DHT22;18182;1.328;103.810;2022-12-26T08:38:31;30.20;99.90
31575;DHT22;18182;1.328;103.810;2022-12-26T08:40:57;30.20;99.90
31575;DHT22;18182;1.328;103.810;2022-12-26T08:43:23;30.20;99.90
31575;DHT22;18182;1.328;103.810;2022-12-26T08:48:28;30.30;99.90
31575;DHT22;18182;1.328;103.810;2022-12-26T08:51:04;30.30;99.90
31575;DHT22;18182;1.328;103.810;2022-12-26T08:53:30;30.40;99.90
31575;DHT22;18182;1.328;103.810;2022-12-26T08:55:57;30.40;99.90
31575;DHT22;18182;1.328;103.810;2022-12-26T08:58:24;30.30;99.90
31575;DHT22;18182;1.328;103.810;2022-12-26T09:00:50;30.30;99.90
31575;DHT22;18182;1.328;103.810;2022-12-26T09:03:16;30.20;99.90
31575;DHT22;18182;1.328;103.810;2022-12-26T09:05:42;30.20;99.90
31575;DHT22;18182;1.328;103.810;2022-12-26T09:08:09;30.10;99.90
31575;DHT22;18182;1.328;103.810;2022-12-26T09:10:35;30.10;99.90
31575;DHT22;18182;1.328;103.810;2022-12-26T09:13:01;30.10;99.90
31575;DHT22;18182;1.328;103.810;2022-12-26T09:15:27;30.00;99.90
31575;DHT22;18182;1.328;103.810;2022-12-26T09:17:54;29.90;99.90
31575;DHT22;18182;1.328;103.810;2022-12-26T09:20:20;29.90;99.90
31575;DHT22;18182;1.328;103.810;2022-12-26T09:22:46;29.90;99.90
31575;DHT22;18182;1.328;103.810;2022-12-26T09:25:15;29.90;99.90
31575;DHT22;18182;1.328;103.810;2022-12-26T09:27:41;29.90;99.90
31575;DHT22;18182;1.328;103.810;2022-12-26T09:30:07;29.90;99.90
31575;DHT22;18182;1.328;103.810;2022-12-26T09:32:34;29.80;99.90
31575;DHT22;18182;1.328;103.810;2022-12-26T09:35:00;29.80;99.90
31575;DHT22;18182;1.328;103.810;2022-12-26T09:37:27;29.80;99.90
31575;DHT22;18182;1.328;103.810;2022-12-26T09:39:53;29.70;99.90
31575;DHT22;18182;1.328;103.810;2022-12-26T09:44:58;29.70;99.90
31575;DHT22;18182;1.328;103.810;2022-12-26T09:49:56;29.70;99.90
31575;DHT22;18182;1.328;103.810;2022-12-26T09:55:23;29.80;99.90
31575;DHT22;18182;1.328;103.810;2022-12-26T09:57:51;29.80;99.90
31575;DHT22;18182;1.328;103.810;2022-12-26T10:00:27;29.70;99.90
31575;DHT22;18182;1.328;103.810;2022-12-26T10:02:54;29.60;99.90
31575;DHT22;18182;1.328;103.810;2022-12-26T10:05:22;29.60;99.90
31575;DHT22;18182;1.328;103.810;2022-12-26T10:07:55;29.60;99.90
31575;DHT22;18182;1.328;103.810;2022-12-26T10:15:48;29.50;99.90
31575;DHT22;18182;1.328;103.810;2022-12-26T10:18:17;29.50;99.90
31575;DHT22;18182;1.328;103.810;2022-12-26T10:25:51;29.40;99.90
31575;DHT22;18182;1.328;103.810;2022-12-26T10:30:50;29.30;99.90
31575;DHT22;18182;1.328;103.810;2022-12-26T10:36:00;29.30;99.90
31575;DHT22;18182;1.328;103.810;2022-12-26T10:41:04;29.30;99.90
31575;DHT22;18182;1.328;103.810;2022-12-26T10:43:33;29.30;99.90
31575;DHT22;18182;1.328;103.810;2022-12-26T10:48:43;29.20;99.90
31575;DHT22;18182;1.328;103.810;2022-12-26T10:51:11;29.10;99.90
31575;DHT22;18182;1.328;103.810;2022-12-26T10:53:56;29.10;99.90
31575;DHT22;18182;1.328;103.810;2022-12-26T10:56:22;29.10;99.90
31575;DHT22;18182;1.328;103.810;2022-12-26T10:58:59;29.10;99.90
31575;DHT22;18182;1.328;103.810;2022-12-26T11:01:30;29.00;99.90
31575;DHT22;18182;1.328;103.810;2022-12-26T11:03:58;29.00;99.90
31575;DHT22;18182;1.328;103.810;2022-12-26T11:06:26;29.00;99.90
31575;DHT22;18182;1.328;103.810;2022-12-26T11:08:52;29.00;99.90
31575;DHT22;18182;1.328;103.810;2022-12-26T11:11:20;28.90;99.90
31575;DHT22;18182;1.328;103.810;2022-12-26T11:13:57;28.90;99.90
31575;DHT22;18182;1.328;103.810;2022-12-26T11:18:54;29.00;99.90
31575;DHT22;18182;1.328;103.810;2022-12-26T11:21:22;29.00;99.90
31575;DHT22;18182;1.328;103.810;2022-12-26T11:23:49;29.00;99.90
31575;DHT22;18182;1.328;103.810;2022-12-26T11:26:25;28.90;99.90
31575;DHT22;18182;1.328;103.810;2022-12-26T11:31:36;29.00;99.90
31575;DHT22;18182;1.328;103.810;2022-12-26T11:34:06;28.90;99.90
31575;DHT22;18182;1.328;103.810;2022-12-26T11:36:33;28.90;99.90
31575;DHT22;18182;1.328;103.810;2022-12-26T11:39:03;29.00;99.90
31575;DHT22;18182;1.328;103.810;2022-12-26T11:41:31;29.00;99.90
31575;DHT22;18182;1.328;103.810;2022-12-26T11:44:23;28.90;99.90
31575;DHT22;18182;1.328;103.810;2022-12-26T11:49:49;29.00;99.90
31575;DHT22;18182;1.328;103.810;2022-12-26T11:52:32;28.90;99.90
31575;DHT22;18182;1.328;103.810;2022-12-26T11:54:59;28.90;99.90
31575;DHT22;18182;1.328;103.810;2022-12-26T11:57:29;28.90;99.90
31575;DHT22;18182;1.328;103.810;2022-12-26T12:00:15;28.90;99.90
31575;DHT22;18182;1.328;103.810;2022-12-26T12:02:42;28.90;99.90
31575;DHT22;18182;1.328;103.810;2022-12-26T12:05:12;28.90;99.90
31575;DHT22;18182;1.328;103.810;2022-12-26T12:10:53;28.80;99.90
31575;DHT22;18182;1.328;103.810;2022-12-26T12:12:54;28.80;99.90
31575;DHT22;18182;1.328;103.810;2022-12-26T12:15:24;28.80;99.90
31575;DHT22;18182;1.328;103.810;2022-12-26T12:23:32;28.90;99.90
31575;DHT22;18182;1.328;103.810;2022-12-26T12:26:08;28.80;99.90
31575;DHT22;18182;1.328;103.810;2022-12-26T12:31:24;28.90;99.90
31575;DHT22;18182;1.328;103.810;2022-12-26T12:39:24;28.80;99.90
31575;DHT22;18182;1.328;103.810;2022-12-26T12:47:31;28.70;99.90
31575;DHT22;18182;1.328;103.810;2022-12-26T13:00:54;28.70;99.90
31575;DHT22;18182;1.328;103.810;2022-12-26T13:03:20;28.70;99.90
31575;DHT22;18182;1.328;103.810;2022-12-26T13:08:18;28.70;99.90
31575;DHT22;18182;1.328;103.810;2022-12-26T13:10:51;28.70;99.90
31575;DHT22;18182;1.328;103.810;2022-12-26T13:15:48;28.70;99.90
31575;DHT22;18182;1.328;103.810;2022-12-26T13:18:21;28.70;99.90
31575;DHT22;18182;1.328;103.810;2022-12-26T13:20:52;28.60;99.90
31575;DHT22;18182;1.328;103.810;2022-12-26T13:23:21;28.70;99.90
31575;DHT22;18182;1.328;103.810;2022-12-26T13:26:12;28.60;99.90
31575;DHT22;18182;1.328;103.810;2022-12-26T13:31:22;28.60;99.90
31575;DHT22;18182;1.328;103.810;2022-12-26T13:33:48;28.60;99.90
31575;DHT22;18182;1.328;103.810;2022-12-26T13:36:34;28.60;99.90
31575;DHT22;18182;1.328;103.810;2022-12-26T13:41:26;28.60;99.90
31575;DHT22;18182;1.328;103.810;2022-12-26T13:49:24;28.60;99.90
31575;DHT22;18182;1.328;103.810;2022-12-26T13:51:52;28.60;99.90
31575;DHT22;18182;1.328;103.810;2022-12-26T13:54:19;28.60;99.90
31575;DHT22;18182;1.328;103.810;2022-12-26T14:04:17;28.60;99.90
31575;DHT22;18182;1.328;103.810;2022-12-26T14:09:18;28.60;99.90
31575;DHT22;18182;1.328;103.810;2022-12-26T14:22:20;28.50;99.90
31575;DHT22;18182;1.328;103.810;2022-12-26T14:40:31;28.50;99.90
31575;DHT22;18182;1.328;103.810;2022-12-26T14:45:40;28.50;99.90
31575;DHT22;18182;1.328;103.810;2022-12-26T14:50:48;28.40;99.90
31575;DHT22;18182;1.328;103.810;2022-12-26T14:55:56;28.40;99.90
31575;DHT22;18182;1.328;103.810;2022-12-26T15:00:49;28.40;99.90
31575;DHT22;18182;1.328;103.810;2022-12-26T15:06:44;28.40;99.90
31575;DHT22;18182;1.328;103.810;2022-12-26T15:19:30;28.40;99.90
31575;DHT22;18182;1.328;103.810;2022-12-26T15:29:55;28.40;99.90
31575;DHT22;18182;1.328;103.810;2022-12-26T15:32:48;28.40;99.90
31575;DHT22;18182;1.328;103.810;2022-12-26T15:37:55;28.30;99.90
31575;DHT22;18182;1.328;103.810;2022-12-26T15:40:24;28.30;99.90
31575;DHT22;18182;1.328;103.810;2022-12-26T15:51:33;28.30;99.90
31575;DHT22;18182;1.328;103.810;2022-12-26T15:54:09;28.30;99.90
31575;DHT22;18182;1.328;103.810;2022-12-26T16:01:46;28.30;99.90
31575;DHT22;18182;1.328;103.810;2022-12-26T16:05:02;28.40;99.90
31575;DHT22;18182;1.328;103.810;2022-12-26T16:09:48;28.30;99.90
31575;DHT22;18182;1.328;103.810;2022-12-26T16:12:18;28.30;99.90
31575;DHT22;18182;1.328;103.810;2022-12-26T16:14:45;28.30;99.90
31575;DHT22;18182;1.328;103.810;2022-12-26T16:19:44;28.30;99.90
31575;DHT22;18182;1.328;103.810;2022-12-26T16:25:07;28.30;99.90
31575;DHT22;18182;1.328;103.810;2022-12-26T16:27:33;28.30;99.90
31575;DHT22;18182;1.328;103.810;2022-12-26T16:30:02;28.30;99.90
31575;DHT22;18182;1.328;103.810;2022-12-26T16:32:29;28.30;99.90
31575;DHT22;18182;1.328;103.810;2022-12-26T16:34:57;28.20;99.90
31575;DHT22;18182;1.328;103.810;2022-12-26T16:37:24;28.30;99.90
31575;DHT22;18182;1.328;103.810;2022-12-26T16:42:34;28.30;99.90
31575;DHT22;18182;1.328;103.810;2022-12-26T16:45:01;28.20;99.90
31575;DHT22;18182;1.328;103.810;2022-12-26T16:47:27;28.20;99.90
31575;DHT22;18182;1.328;103.810;2022-12-26T16:49:54;28.20;99.90
31575;DHT22;18182;1.328;103.810;2022-12-26T16:52:33;28.20;99.90
31575;DHT22;18182;1.328;103.810;2022-12-26T16:57:44;28.20;99.90
31575;DHT22;18182;1.328;103.810;2022-12-26T17:00:15;28.20;99.90
31575;DHT22;18182;1.328;103.810;2022-12-26T17:02:43;28.20;99.90
31575;DHT22;18182;1.328;103.810;2022-12-26T17:05:19;28.20;99.90
31575;DHT22;18182;1.328;103.810;2022-12-26T17:07:46;28.20;99.90
31575;DHT22;18182;1.328;103.810;2022-12-26T17:10:19;28.20;99.90
31575;DHT22;18182;1.328;103.810;2022-12-26T17:12:46;28.20;99.90
31575;DHT22;18182;1.328;103.810;2022-12-26T17:15:17;28.20;99.90
31575;DHT22;18182;1.328;103.810;2022-12-26T17:17:44;28.20;99.90
31575;DHT22;18182;1.328;103.810;2022-12-26T17:22:54;28.10;99.90
31575;DHT22;18182;1.328;103.810;2022-12-26T17:27:48;28.10;99.90
31575;DHT22;18182;1.328;103.810;2022-12-26T17:30:34;28.10;99.90
31575;DHT22;18182;1.328;103.810;2022-12-26T17:33:02;28.10;99.90
31575;DHT22;18182;1.328;103.810;2022-12-26T17:35:29;28.10;99.90
31575;DHT22;18182;1.328;103.810;2022-12-26T17:37:58;28.10;99.90
31575;DHT22;18182;1.328;103.810;2022-12-26T17:40:32;28.10;99.90
31575;DHT22;18182;1.328;103.810;2022-12-26T17:45:31;28.00;99.90
31575;DHT22;18182;1.328;103.810;2022-12-26T17:47:57;28.10;99.90
31575;DHT22;18182;1.328;103.810;2022-12-26T17:50:25;28.00;99.90
31575;DHT22;18182;1.328;103.810;2022-12-26T17:52:53;28.00;99.90
31575;DHT22;18182;1.328;103.810;2022-12-26T17:55:21;28.10;99.90
31575;DHT22;18182;1.328;103.810;2022-12-26T17:57:50;28.00;99.90
31575;DHT22;18182;1.328;103.810;2022-12-26T18:00:20;28.00;99.90
31575;DHT22;18182;1.328;103.810;2022-12-26T18:02:47;28.00;99.90
31575;DHT22;18182;1.328;103.810;2022-12-26T18:05:14;28.00;99.90
31575;DHT22;18182;1.328;103.810;2022-12-26T18:07:40;28.10;99.90
31575;DHT22;18182;1.328;103.810;2022-12-26T18:10:09;28.10;99.90
31575;DHT22;18182;1.328;103.810;2022-12-26T18:12:41;28.10;99.90
31575;DHT22;18182;1.328;103.810;2022-12-26T18:15:07;28.10;99.90
31575;DHT22;18182;1.328;103.810;2022-12-26T18:17:33;28.10;99.90
31575;DHT22;18182;1.328;103.810;2022-12-26T18:20:00;28.00;99.90
31575;DHT22;18182;1.328;103.810;2022-12-26T18:22:26;28.00;99.90
31575;DHT22;18182;1.328;103.810;2022-12-26T18:24:53;28.00;99.90
31575;DHT22;18182;1.328;103.810;2022-12-26T18:27:20;28.00;99.90
31575;DHT22;18182;1.328;103.810;2022-12-26T18:29:47;28.00;99.90
31575;DHT22;18182;1.328;103.810;2022-12-26T18:32:20;28.00;99.90
31575;DHT22;18182;1.328;103.810;2022-12-26T18:34:47;28.00;99.90
31575;DHT22;18182;1.328;103.810;2022-12-26T18:37:13;28.00;99.90
31575;DHT22;18182;1.328;103.810;2022-12-26T18:39:39;28.00;99.90
31575;DHT22;18182;1.328;103.810;2022-12-26T18:42:05;28.00;99.90
31575;DHT22;18182;1.328;103.810;2022-12-26T18:44:31;28.00;99.90
31575;DHT22;18182;1.328;103.810;2022-12-26T18:46:57;28.00;99.90
31575;DHT22;18182;1.328;103.810;2022-12-26T18:49:23;28.00;99.90
31575;DHT22;18182;1.328;103.810;2022-12-26T18:51:50;28.00;99.90
31575;DHT22;18182;1.328;103.810;2022-12-26T18:54:16;28.00;99.90
31575;DHT22;18182;1.328;103.810;2022-12-26T18:56:42;28.00;99.90
31575;DHT22;18182;1.328;103.810;2022-12-26T18:59:08;28.00;99.90
31575;DHT22;18182;1.328;103.810;2022-12-26T19:01:35;28.00;99.90
31575;DHT22;18182;1.328;103.810;2022-12-26T19:04:01;28.00;99.90
31575;DHT22;18182;1.328;103.810;2022-12-26T19:06:28;27.90;99.90
31575;DHT22;18182;1.328;103.810;2022-12-26T19:08:57;27.90;99.90
31575;DHT22;18182;1.328;103.810;2022-12-26T19:11:23;27.90;99.90
31575;DHT22;18182;1.328;103.810;2022-12-26T19:13:49;27.90;99.90
31575;DHT22;18182;1.328;103.810;2022-12-26T19:16:15;27.90;99.90
31575;DHT22;18182;1.328;103.810;2022-12-26T19:18:41;27.90;99.90
31575;DHT22;18182;1.328;103.810;2022-12-26T19:21:11;27.90;99.90
31575;DHT22;18182;1.328;103.810;2022-12-26T19:23:38;27.90;99.90
31575;DHT22;18182;1.328;103.810;2022-12-26T19:26:08;27.90;99.90